Nearby METAR Reports

 

KPIA - Peoria, Illinois, USA
Distance from station: SSW 11mi, 18km
Updated: 04/25/2018 5:54pm
Clear
Clear
 Wind from calm
Wind: Calm
Temperature: 63°F , 17°C
Dew Point: 37°F , 3°C
Humidity: 39%
Barometer: 30.00 inHg , 1015.9 hPa
Clouds: Clear
Visibility: 10 miles , 16 km
2018/04/25 22:54 KPIA 252254Z 00000KT 10SM CLR 17/03 A3000 RMK AO2 SLP158 T01720033 $
KC75 - Lacon, Illinois, USA
Distance from station: NE 18mi, 30km
Updated: 04/25/2018 6:15pm
Clear
Clear
 Wind from NNE
Wind: NNE 7 mph , 11 km/h
Temperature: 63°F , 17°C
Dew Point: 30°F , -1°C
Humidity: 30%
Barometer: 29.98 inHg , 1015.2 hPa
Clouds: Clear
Visibility: 10 miles , 16 km
2018/04/25 23:15 KC75 252315Z AUTO 03006KT 10SM CLR 17/M01 A2998 RMK AO2 T01661011
 
KGBG - Galesburg, Illinois, USA
Distance from station: W 43mi, 69km
Updated: 04/25/2018 6:15pm
Clear
Clear
 Wind from N
Wind: N 6 mph , 9 km/h
Temperature: 64°F , 18°C
Dew Point: 36°F , 2°C
Humidity: 34%
Barometer: 30.01 inHg , 1016.3 hPa
Clouds: Clear
Visibility: 10 miles , 16 km
2018/04/25 23:15 KGBG 252315Z AUTO 01005KT 10SM CLR 18/02 A3001 RMK AO2 T01840020
KBMI - Bloomington/Norm, Illinois, USA
Distance from station: ESE 44mi, 71km
Updated: 04/25/2018 5:56pm
Clear
Clear
 Wind from NNW
Wind: NNW 6 mph , 9 km/h
Temperature: 63°F , 17°C
Dew Point: 36°F , 2°C
Humidity: 37%
Barometer: 30.00 inHg , 1015.9 hPa
Clouds: Clear
Visibility: 10 miles , 16 km
2018/04/25 22:56 KBMI 252256Z 34005KT 10SM CLR 17/02 A3000 RMK AO2 SLP183 T01670017 $
 
KVYS - Peru, Illinois, USA
Distance from station: NNE 44mi, 71km
Updated: 04/25/2018 6:15pm
Clear
Clear
 Wind from NE
Wind: NE 7 mph , 11 km/h
Temperature: 64°F , 18°C
Dew Point: 30°F , -1°C
Humidity: 28%
Barometer: 29.99 inHg , 1015.6 hPa
Clouds: Clear
Visibility: 10 miles , 16 km
2018/04/25 23:15 KVYS 252315Z AUTO 04006KT 10SM CLR 18/M01 A2999 RMK AO2 T01811007
KAAA - Lincoln, Illinois, USA
Distance from station: SSE 48mi, 77km
Updated: 04/25/2018 6:15pm
Clear
Clear
 Wind from N
Wind: N 5 mph , 7 km/h
Temperature: 63°F , 17°C
Dew Point: 39°F , 4°C
Humidity: 42%
Barometer: 29.99 inHg , 1015.6 hPa
Clouds: Clear
Visibility: 10 miles , 16 km
2018/04/25 23:15 KAAA 252315Z AUTO 35004KT 10SM CLR 17/04 A2999 RMK AO2 T01730037
 
KPNT - Pontiac, Illinois, USA
Distance from station: E 53mi, 85km
Updated: 04/25/2018 6:15pm
Clear
Clear
 Wind from NE
Wind: NE 6 mph , 9 km/h
Temperature: 63°F , 17°C
Dew Point: 32°F , 0°C
Humidity: 32%
Barometer: 29.99 inHg , 1015.6 hPa
Clouds: Clear
Visibility: 10 miles , 16 km
2018/04/25 23:15 KPNT 252315Z AUTO 05005KT 10SM CLR 17/00 A2999 RMK AO2 T01701004
KMQB - Macomb Muni, Illinois, USA
Distance from station: WSW 58mi, 93km
Updated: 04/25/2018 6:15pm
Clear
Clear
 Wind from calm
Wind: Calm
Temperature: 61°F , 16°C
Dew Point: 36°F , 2°C
Humidity: 39%
Barometer: 30.03 inHg , 1016.9 hPa
Clouds: Clear
Visibility: 10 miles , 16 km
2018/04/25 23:15 KMQB 252315Z AUTO 00000KT 10SM CLR 16/02 A3003 RMK AO2 T01600017
 
KMLI - Moline/Quad City, Illinois, USA
Distance from station: NW 64mi, 103km
Updated: 04/25/2018 5:52pm
Clear
Clear
 Wind from varies
Wind: varies 5 mph , 7 km/h
Temperature: 64°F , 18°C
Dew Point: 28°F , -2°C
Humidity: 26%
Barometer: 29.99 inHg , 1015.6 hPa
Clouds: Clear
Visibility: 10 miles , 16 km
2018/04/25 22:52 KMLI 252252Z VRB04KT 10SM CLR 18/M02 A2999 RMK AO2 SLP156 T01831017
KSQI - Sterling Rockfal, Illinois, USA
Distance from station: N 64mi, 103km
Updated: 04/25/2018 5:56pm
Clear
Clear
 Wind from NNE
Wind: NNE 7 mph , 11 km/h
Temperature: 63°F , 17°C
Dew Point: 30°F , -1°C
Humidity: 30%
Barometer: 30.00 inHg , 1015.9 hPa
Clouds: Clear
Visibility: 10 miles , 16 km
2018/04/25 22:56 KSQI 252256Z AUTO 02006KT 10SM CLR 17/M01 A3000 RMK AO2 SLP183 T01721011 $
 
KSPI - Springfield, Illinois, USA
Distance from station: S 67mi, 108km
Updated: 04/25/2018 5:52pm
Clear
Clear
 Wind from N
Wind: N 10 mph , 17 km/h
Temperature: 64°F , 18°C
Dew Point: 43°F , 6°C
Humidity: 46%
Barometer: 30.00 inHg , 1015.9 hPa
Clouds: Clear
Visibility: 10 miles , 16 km
2018/04/25 22:52 KSPI 252252Z 35009KT 10SM CLR 18/06 A3000 RMK AO2 SLP157 T01830056
KDVN - Davenport/Quad C, Iowa, USA
Distance from station: NW 74mi, 120km
Updated: 04/25/2018 5:52pm
Clear
Clear
 Wind from N
Wind: N 5 mph , 7 km/h
Temperature: 63°F , 17°C
Dew Point: 28°F , -2°C
Humidity: 27%
Barometer: 30.02 inHg , 1016.6 hPa
Clouds: Clear
Visibility: 10 miles , 16 km
2018/04/25 22:52 KDVN 252252Z AUTO 35004KT 10SM CLR 17/M02 A3002 RMK AO2 SLP163 T01721022